.
WxDataArchive / Data Records for 2010-05-17
2010-05-16 May 2010 2010-05-18

Data Records for Monday, 17 May 2010

Time	Temp	Chill	HIndex	Humid	Dewpt	 Wind 	HiWind	WindDir	Rain 	Barom 
-----	----	-----	------	-----	-----	------	------	-------	-----	----- 
00:00	53.8	53.8	53.8	65	42.3	1	4	112	0.00	30.103 
00:05	53.8	53.8	53.8	65	42.3	2	6	112	0.00	30.103 
00:10	53.6	53.6	53.6	66	42.5	1	5	68	0.00	30.103 
00:15	53.5	53.5	53.5	66	42.4	1	4	112	0.00	30.098 
00:20	53.3	53.3	53.3	67	42.6	1	4	112	0.00	30.098 
00:25	53.2	53.2	53.2	68	42.9	1	3	135	0.00	30.098 
00:30	53.1	53.1	53.1	68	42.8	1	4	135	0.00	30.096 
00:35	52.9	52.9	52.9	69	43.0	1	4	135	0.00	30.096 
00:40	52.8	52.8	52.8	68	42.5	1	4	112	0.00	30.096 
00:45	52.8	52.8	52.8	69	42.9	1	3	112	0.00	30.088 
00:50	52.6	52.6	52.6	69	42.7	1	4	112	0.00	30.088 
00:55	52.5	52.5	52.5	69	42.6	0	3	112	0.00	30.088 
01:00	52.3	52.3	52.3	69	42.4	1	3	112	0.00	30.086 
01:05	52.3	52.3	52.3	70	42.8	0	3	112	0.00	30.086 
01:10	52.2	52.2	52.2	71	43.1	0	1	112	0.00	30.086 
01:15	51.9	51.9	51.9	71	42.8	0	1	112	0.00	30.080 
01:20	51.7	51.7	51.7	72	43.0	0	3	112	0.00	30.080 
01:25	51.6	51.6	51.6	73	43.2	0	2	112	0.00	30.080 
01:30	51.4	51.4	51.4	73	43.0	1	4	112	0.00	30.076 
01:35	51.4	51.4	51.4	73	43.0	0	3	112	0.00	30.076 
01:40	51.4	51.4	51.4	74	43.4	0	2	135	0.00	30.076 
01:45	51.3	51.3	51.3	74	43.3	0	2	135	0.00	30.075 
01:50	51.1	51.1	51.1	75	43.5	0	1	135	0.00	30.075 
01:55	51.1	51.1	51.1	75	43.5	1	3	135	0.00	30.075 
02:00	51.1	51.1	51.1	76	43.8	0	2	68	0.00	30.070 
02:05	51.1	51.1	51.1	76	43.8	0	3	68	0.00	30.070 
02:10	51.1	51.1	51.1	77	44.1	0	1	68	0.00	30.070 
02:15	51.1	51.1	51.1	77	44.1	0	2	68	0.00	30.069 
02:20	51.1	51.1	51.1	77	44.1	0	3	68	0.00	30.069 
02:25	51.1	51.1	51.1	77	44.1	1	3	68	0.00	30.069 
02:30	51.1	51.1	51.1	77	44.1	0	1	68	0.00	30.065 
02:35	51.1	51.1	51.1	77	44.1	1	4	90	0.00	30.065 
02:40	51.1	51.1	51.1	77	44.1	0	1	90	0.00	30.065 
02:45	51.0	51.0	51.0	77	44.0	0	3	112	0.00	30.059 
02:50	51.0	51.0	51.0	77	44.0	0	1	112	0.00	30.059 
02:55	51.0	51.0	51.0	77	44.0	0	2	112	0.00	30.059 
03:00	50.8	50.8	50.8	77	43.9	0	2	112	0.00	30.058 
03:05	50.8	50.8	50.8	76	43.5	0	3	112	0.00	30.058 
03:10	50.8	50.8	50.8	76	43.5	0	3	112	0.00	30.058 
03:15	50.8	50.8	50.8	76	43.5	0	1	112	0.00	30.057 
03:20	50.7	50.7	50.7	76	43.4	0	0	---	0.00	30.057 
03:25	50.5	50.5	50.5	76	43.2	0	0	---	0.00	30.057 
03:30	50.4	50.4	50.4	76	43.1	0	0	---	0.00	30.060 
03:35	50.2	50.2	50.2	76	42.9	0	1	112	0.00	30.060 
03:40	50.2	50.2	50.2	76	42.9	0	1	112	0.00	30.060 
03:45	50.2	50.2	50.2	76	42.9	0	1	112	0.00	30.058 
03:50	50.5	50.5	50.5	75	42.9	0	2	112	0.00	30.058 
03:55	50.7	50.7	50.7	75	43.1	0	1	90	0.00	30.058 
04:00	51.0	51.0	51.0	75	43.4	0	2	90	0.00	30.055 
04:05	51.3	51.3	51.3	74	43.3	0	3	90	0.00	30.055 
04:10	51.4	51.4	51.4	74	43.4	0	1	90	0.00	30.055 
04:15	51.6	51.6	51.6	74	43.6	0	1	90	0.00	30.053 
04:20	51.7	51.7	51.7	74	43.7	0	2	90	0.00	30.053 
04:25	51.7	51.7	51.7	74	43.7	0	1	90	0.00	30.053 
04:30	51.9	51.9	51.9	74	43.9	0	2	90	0.00	30.050 
04:35	51.9	51.9	51.9	74	43.9	0	2	90	0.00	30.050 
04:40	52.0	52.0	52.0	74	44.0	0	3	180	0.00	30.050 
04:45	52.0	52.0	52.0	74	44.0	0	2	68	0.00	30.043 
04:50	52.2	52.2	52.2	74	44.2	1	4	90	0.00	30.043 
04:55	52.3	52.3	52.3	73	43.9	1	4	90	0.00	30.043 
05:00	52.5	52.5	52.5	72	43.7	2	9	112	0.00	30.040 
05:05	52.6	52.6	52.6	72	43.8	1	3	112	0.00	30.040 
05:10	52.8	52.8	52.8	71	43.7	2	5	90	0.00	30.040 
05:15	52.9	52.9	52.9	71	43.8	1	3	135	0.00	30.038 
05:20	53.1	53.1	53.1	71	43.9	1	3	135	0.00	30.038 
05:25	53.2	53.2	53.2	70	43.7	1	4	112	0.00	30.038 
05:30	53.2	53.2	53.2	69	43.3	1	3	112	0.00	30.031 
05:35	53.2	53.2	53.2	69	43.3	1	3	112	0.00	30.031 
05:40	53.2	53.2	53.2	70	43.7	1	3	112	0.00	30.031 
05:45	53.3	53.3	53.3	69	43.4	1	5	90	0.00	30.026 
05:50	53.3	53.3	53.3	69	43.4	1	5	90	0.00	30.026 
05:55	53.3	53.3	53.3	68	43.0	1	5	90	0.00	30.026 
06:00	53.3	53.3	53.3	69	43.4	1	3	90	0.00	30.024 
06:05	53.3	53.3	53.3	68	43.0	1	2	68	0.00	30.024 
06:10	53.3	53.3	53.3	69	43.4	0	7	68	0.00	30.024 
06:15	53.3	53.3	53.3	68	43.0	2	7	68	0.00	30.018 
06:20	53.5	53.5	53.5	67	42.8	2	8	112	0.00	30.018 
06:25	53.5	53.5	53.5	66	42.4	2	7	112	0.00	30.018 
06:30	53.6	53.6	53.6	66	42.5	2	6	90	0.00	30.019 
06:35	53.6	53.6	53.6	66	42.5	2	5	112	0.00	30.019 
06:40	53.6	53.6	53.6	66	42.5	1	5	112	0.00	30.019 
06:45	53.6	53.6	53.6	66	42.5	1	3	112	0.00	30.017 
06:50	53.6	53.6	53.6	65	42.1	1	5	112	0.00	30.017 
06:55	53.6	53.6	53.6	66	42.5	1	3	90	0.00	30.017 
07:00	53.6	53.6	53.6	66	42.5	1	5	112	0.00	30.014 
07:05	53.5	53.5	53.5	66	42.4	1	3	112	0.00	30.014 
07:10	53.5	53.5	53.5	66	42.4	1	3	112	0.00	30.014 
07:15	53.5	53.5	53.5	66	42.4	1	3	112	0.00	30.014 
07:20	53.5	53.5	53.5	66	42.4	1	9	112	0.00	30.014 
07:25	53.5	53.5	53.5	66	42.4	1	3	45	0.00	30.014 
07:30	53.5	53.5	53.5	67	42.8	0	4	112	0.00	30.013 
07:35	53.5	53.5	53.5	67	42.8	1	3	112	0.00	30.013 
07:40	53.3	53.3	53.3	67	42.6	1	4	112	0.00	30.013 
07:45	53.3	53.3	53.3	68	43.0	0	3	270	0.00	30.013 
07:50	53.3	53.3	53.3	67	42.6	1	3	135	0.00	30.013 
07:55	53.3	53.3	53.3	68	43.0	0	3	112	0.00	30.013 
08:00	53.3	53.3	53.3	68	43.0	0	3	112	0.00	30.011 
08:05	53.3	53.3	53.3	69	43.4	0	2	112	0.00	30.011 
08:10	53.3	53.3	53.3	69	43.4	0	2	112	0.00	30.011 
08:15	53.3	53.3	53.3	69	43.4	0	2	112	0.00	30.012 
08:20	53.3	53.3	53.3	70	43.8	0	3	112	0.00	30.012 
08:25	53.3	53.3	53.3	71	44.1	0	3	202	0.00	30.012 
08:30	53.2	53.2	53.2	71	44.0	0	1	158	0.00	30.011 
08:35	53.2	53.2	53.2	70	43.7	1	3	158	0.00	30.011 
08:40	53.2	53.2	53.2	71	44.0	1	4	112	0.00	30.011 
08:45	53.2	53.2	53.2	71	44.0	1	3	112	0.00	30.007 
08:50	53.2	53.2	53.2	71	44.0	1	4	112	0.00	30.007 
08:55	53.2	53.2	53.2	71	44.0	1	3	112	0.00	30.007 
09:00	53.2	53.2	53.2	72	44.4	1	5	112	0.00	30.005 
09:05	53.2	53.2	53.2	71	44.0	1	5	90	0.00	30.005 
09:10	53.2	53.2	53.2	72	44.4	1	5	112	0.00	30.005 
09:15	53.2	53.2	53.2	72	44.4	2	4	90	0.00	30.001 
09:20	53.3	53.3	53.3	72	44.5	1	3	135	0.00	30.001 
09:25	53.3	53.3	53.3	73	44.9	1	5	112	0.00	30.001 
09:30	53.3	53.3	53.3	76	45.9	1	2	135	0.00	29.998 
09:35	53.2	53.2	53.2	77	46.2	0	1	135	0.00	29.998 
09:40	53.1	53.1	53.1	78	46.4	1	4	135	0.00	29.998 
09:45	52.9	52.9	52.9	79	46.6	1	5	90	0.00	29.990 
09:50	52.9	52.9	52.9	79	46.6	1	4	90	0.01	29.990 
09:55	53.1	53.1	53.1	81	47.4	1	3	90	0.00	29.990 
10:00	53.1	53.1	53.1	82	47.8	0	3	90	0.00	29.983 
10:05	52.9	52.9	52.9	83	47.9	0	2	90	0.00	29.983 
10:10	52.8	52.8	52.8	84	48.1	1	3	68	0.00	29.983 
10:15	52.8	52.8	52.8	84	48.1	1	4	112	0.00	29.982 
10:20	52.8	52.8	52.8	84	48.1	1	3	112	0.00	29.982 
10:25	52.8	52.8	52.8	85	48.4	1	4	112	0.01	29.982 
10:30	52.8	52.8	52.8	85	48.4	1	3	112	0.00	29.980 
10:35	52.9	52.9	52.9	86	48.8	0	2	112	0.00	29.980 
10:40	53.1	53.1	53.1	86	49.0	1	5	112	0.00	29.980 
10:45	53.2	53.2	53.2	86	49.1	1	2	112	0.00	29.980 
10:50	53.5	53.5	53.5	85	49.1	1	4	112	0.00	29.980 
10:55	53.8	53.8	53.8	85	49.4	0	3	112	0.00	29.980 
11:00	54.1	54.1	54.1	85	49.7	0	3	112	0.00	29.977 
11:05	54.2	54.2	54.2	85	49.8	1	5	135	0.00	29.977 
11:10	54.4	54.4	54.4	84	49.7	2	7	112	0.00	29.977 
11:15	54.5	54.5	54.5	84	49.8	1	5	90	0.00	29.978 
11:20	54.7	54.7	54.7	84	50.0	1	3	135	0.00	29.978 
11:25	54.8	54.8	54.8	84	50.1	1	3	135	0.00	29.978 
11:30	54.8	54.8	54.8	85	50.4	0	2	135	0.01	29.978 
11:35	54.8	54.8	54.8	86	50.7	1	4	90	0.00	29.978 
11:40	54.7	54.7	54.7	87	50.9	1	4	90	0.00	29.978 
11:45	54.7	54.7	54.7	87	50.9	1	6	90	0.00	29.976 
11:50	54.7	54.7	54.7	88	51.2	0	3	90	0.01	29.976 
11:55	54.7	54.7	54.7	88	51.2	0	3	90	0.00	29.976 
12:00	54.7	54.7	54.7	88	51.2	0	2	45	0.00	29.975 
12:05	54.7	54.7	54.7	88	51.2	1	4	112	0.00	29.975 
12:10	54.8	54.8	54.8	88	51.3	1	3	90	0.00	29.975 
12:15	55.0	55.0	55.0	89	51.8	0	3	90	0.00	29.973 
12:20	55.3	55.3	55.3	89	52.1	0	2	158	0.00	29.973 
12:25	55.4	55.4	55.4	89	52.2	0	3	158	0.00	29.973 
12:30	55.6	55.6	55.6	89	52.4	0	2	112	0.01	29.970 
12:35	55.4	55.4	55.4	89	52.2	1	3	45	0.00	29.970 
12:40	55.6	55.6	55.6	88	52.1	0	2	135	0.00	29.970 
12:45	55.6	55.6	55.6	89	52.4	0	2	135	0.00	29.968 
12:50	55.7	55.7	55.7	89	52.5	0	1	135	0.00	29.968 
12:55	55.7	55.7	55.7	89	52.5	0	3	135	0.00	29.968 
13:00	55.7	55.7	55.7	89	52.5	0	3	135	0.00	29.966 
13:05	55.7	55.7	55.7	89	52.5	0	1	135	0.00	29.966 
13:10	55.7	55.7	55.7	89	52.5	0	1	135	0.00	29.966 
13:15	55.9	55.9	55.9	90	53.0	1	4	158	0.00	29.966 
13:20	56.0	56.0	56.0	90	53.1	0	1	158	0.01	29.966 
13:25	56.2	56.2	56.2	90	53.3	0	2	158	0.00	29.966 
13:30	56.2	56.2	56.2	90	53.3	0	2	180	0.00	29.964 
13:35	56.3	56.3	56.3	90	53.4	0	3	180	0.00	29.964 
13:40	56.3	56.3	56.3	90	53.4	0	1	180	0.00	29.964 
13:45	56.3	56.3	56.3	90	53.4	0	3	135	0.00	29.962 
13:50	56.3	56.3	56.3	90	53.4	0	1	135	0.00	29.962 
13:55	56.5	56.5	56.5	90	53.6	1	5	202	0.01	29.962 
14:00	56.5	56.5	56.5	90	53.6	0	2	22	0.00	29.955 
14:05	56.5	56.5	56.5	90	53.6	0	1	22	0.00	29.955 
14:10	56.5	56.5	56.5	91	53.9	0	3	112	0.00	29.955 
14:15	56.6	56.6	56.6	91	54.0	0	1	112	0.00	29.952 
14:20	56.6	56.6	56.6	91	54.0	0	1	112	0.00	29.952 
14:25	56.6	56.6	56.6	91	54.0	1	5	90	0.00	29.952 
14:30	56.5	56.5	56.5	90	53.6	2	9	112	0.01	29.952 
14:35	56.3	56.3	56.3	90	53.4	1	7	158	0.00	29.952 
14:40	56.2	56.2	56.2	90	53.3	1	4	180	0.00	29.952 
14:45	56.2	56.2	56.2	90	53.3	1	7	135	0.01	29.955 
14:50	56.3	56.3	56.3	90	53.4	0	2	112	0.01	29.955 
14:55	56.2	56.2	56.2	91	53.6	1	7	112	0.00	29.955 
15:00	56.2	56.2	56.2	91	53.6	0	3	112	0.01	29.954 
15:05	56.2	56.2	56.2	91	53.6	0	2	90	0.00	29.954 
15:10	56.2	56.2	56.2	91	53.6	0	4	68	0.01	29.954 
15:15	56.2	56.2	56.2	91	53.6	0	2	112	0.00	29.953 
15:20	55.9	55.9	55.9	91	53.3	1	5	90	0.01	29.953 
15:25	55.7	55.7	55.7	90	52.8	1	3	45	0.00	29.953 
15:30	55.7	55.7	55.7	91	53.1	0	2	68	0.01	29.951 
15:35	55.7	55.7	55.7	91	53.1	0	2	68	0.00	29.951 
15:40	55.6	55.6	55.6	91	53.0	0	3	135	0.01	29.951 
15:45	55.6	55.6	55.6	91	53.0	0	2	135	0.00	29.950 
15:50	55.4	55.4	55.4	91	52.8	0	1	135	0.01	29.950 
15:55	55.4	55.4	55.4	91	52.8	0	1	135	0.00	29.950 
16:00	55.4	55.4	55.4	91	52.8	0	2	135	0.01	29.949 
16:05	55.3	55.3	55.3	91	52.7	1	4	135	0.02	29.949 
16:10	55.1	55.1	55.1	92	52.8	1	3	90	0.02	29.949 
16:15	54.8	54.8	54.8	92	52.5	2	9	90	0.00	29.949 
16:20	54.5	54.5	54.5	91	51.9	2	6	90	0.01	29.949 
16:25	54.4	54.4	54.4	92	52.1	3	8	112	0.00	29.949 
16:30	54.2	54.2	54.2	92	51.9	2	6	90	0.00	29.951 
16:35	54.2	54.2	54.2	92	51.9	1	5	112	0.01	29.951 
16:40	54.1	54.1	54.1	92	51.8	0	2	112	0.01	29.951 
16:45	54.1	54.1	54.1	92	51.8	0	1	112	0.00	29.946 
16:50	54.1	54.1	54.1	92	51.8	0	2	112	0.01	29.946 
16:55	53.9	53.9	53.9	92	51.6	1	3	135	0.00	29.946 
17:00	53.9	53.9	53.9	92	51.6	1	2	68	0.01	29.946 
17:05	53.9	53.9	53.9	93	51.9	1	4	135	0.02	29.946 
17:10	53.9	53.9	53.9	93	51.9	1	4	90	0.00	29.946 
17:15	53.9	53.9	53.9	93	51.9	1	2	90	0.01	29.945 
17:20	54.1	54.1	54.1	93	52.1	1	3	90	0.00	29.945 
17:25	53.9	53.9	53.9	93	51.9	1	5	90	0.01	29.945 
17:30	53.9	53.9	53.9	93	51.9	1	5	90	0.02	29.942 
17:35	53.9	53.9	53.9	93	51.9	0	3	90	0.00	29.942 
17:40	54.1	54.1	54.1	93	52.1	1	3	90	0.01	29.942 
17:45	54.1	54.1	54.1	93	52.1	0	2	90	0.01	29.940 
17:50	54.1	54.1	54.1	94	52.4	0	2	90	0.00	29.940 
17:55	53.9	53.9	53.9	94	52.2	1	5	90	0.01	29.940 
18:00	53.9	53.9	53.9	94	52.2	1	5	90	0.00	29.940 
18:05	53.8	53.8	53.8	94	52.1	1	5	22	0.01	29.940 
18:10	53.6	53.6	53.6	94	51.9	1	5	112	0.00	29.940 
18:15	53.5	53.5	53.5	94	51.8	1	5	112	0.00	29.936 
18:20	53.5	53.5	53.5	94	51.8	1	5	112	0.01	29.936 
18:25	53.5	53.5	53.5	94	51.8	0	3	0	0.00	29.936 
18:30	53.5	53.5	53.5	94	51.8	1	6	45	0.00	29.935 
18:35	53.5	53.5	53.5	94	51.8	1	3	90	0.00	29.935 
18:40	53.6	53.6	53.6	94	51.9	1	3	135	0.01	29.935 
18:45	53.6	53.6	53.6	94	51.9	1	6	90	0.00	29.933 
18:50	53.6	53.6	53.6	94	51.9	1	4	90	0.01	29.933 
18:55	53.6	53.6	53.6	94	51.9	1	5	90	0.01	29.933 
19:00	53.6	53.6	53.6	94	51.9	1	3	135	0.00	29.927 
19:05	53.6	53.6	53.6	94	51.9	1	7	112	0.01	29.927 
19:10	53.6	53.6	53.6	94	51.9	2	7	90	0.00	29.927 
19:15	53.6	53.6	53.6	94	51.9	2	10	90	0.01	29.924 
19:20	53.6	53.6	53.6	94	51.9	2	6	112	0.00	29.924 
19:25	53.8	53.8	53.8	94	52.1	1	3	112	0.01	29.924 
19:30	53.8	53.8	53.8	94	52.1	2	6	90	0.00	29.926 
19:35	53.6	53.6	53.6	94	51.9	2	7	112	0.00	29.926 
19:40	53.6	53.6	53.6	94	51.9	1	5	112	0.01	29.926 
19:45	53.6	53.6	53.6	94	51.9	1	5	112	0.00	29.923 
19:50	53.6	53.6	53.6	94	51.9	1	5	112	0.00	29.923 
19:55	53.5	53.5	53.5	95	52.1	2	5	112	0.01	29.923 
20:00	53.5	53.5	53.5	95	52.1	2	5	90	0.00	29.921 
20:05	53.5	53.5	53.5	95	52.1	1	6	135	0.01	29.921 
20:10	53.5	53.5	53.5	95	52.1	1	5	135	0.00	29.921 
20:15	53.3	53.3	53.3	94	51.6	1	5	68	0.00	29.919 
20:20	53.3	53.3	53.3	95	51.9	1	3	112	0.00	29.919 
20:25	53.3	53.3	53.3	95	51.9	1	6	68	0.00	29.919 
20:30	53.3	53.3	53.3	95	51.9	1	6	158	0.01	29.919 
20:35	53.3	53.3	53.3	95	51.9	1	4	112	0.00	29.919 
20:40	53.3	53.3	53.3	95	51.9	1	4	135	0.00	29.919 
20:45	53.3	53.3	53.3	95	51.9	1	5	158	0.00	29.917 
20:50	53.3	53.3	53.3	95	51.9	1	5	68	0.00	29.917 
20:55	53.3	53.3	53.3	95	51.9	1	4	112	0.01	29.917 
21:00	53.3	53.3	53.3	95	51.9	1	4	90	0.00	29.915 
21:05	53.3	53.3	53.3	95	51.9	1	7	90	0.00	29.915 
21:10	53.3	53.3	53.3	95	51.9	2	7	112	0.00	29.915 
21:15	53.3	53.3	53.3	95	51.9	1	5	135	0.00	29.912 
21:20	53.3	53.3	53.3	95	51.9	1	4	90	0.00	29.912 
21:25	53.3	53.3	53.3	95	51.9	2	6	135	0.00	29.912 
21:30	53.5	53.5	53.5	95	52.1	2	7	112	0.00	29.913 
21:35	53.5	53.5	53.5	95	52.1	1	5	158	0.00	29.913 
21:40	53.5	53.5	53.5	95	52.1	1	6	112	0.00	29.913 
21:45	53.5	53.5	53.5	95	52.1	1	4	135	0.00	29.913 
21:50	53.5	53.5	53.5	95	52.1	1	3	135	0.00	29.913 
21:55	53.5	53.5	53.5	95	52.1	1	6	68	0.00	29.913 
22:00	53.5	53.5	53.5	95	52.1	1	3	135	0.00	29.909 
22:05	53.5	53.5	53.5	95	52.1	1	4	135	0.00	29.909 
22:10	53.6	53.6	53.6	95	52.2	1	4	135	0.00	29.909 
22:15	53.6	53.6	53.6	95	52.2	1	6	112	0.00	29.908 
22:20	53.6	53.6	53.6	95	52.2	1	6	112	0.00	29.908 
22:25	53.6	53.6	53.6	95	52.2	1	5	112	0.00	29.908 
22:30	53.6	53.6	53.6	95	52.2	0	2	112	0.00	29.905 
22:35	53.6	53.6	53.6	95	52.2	1	4	90	0.00	29.905 
22:40	53.6	53.6	53.6	95	52.2	1	4	112	0.00	29.905 
22:45	53.6	53.6	53.6	94	51.9	1	5	135	0.00	29.903 
22:50	53.6	53.6	53.6	95	52.2	2	8	135	0.00	29.903 
22:55	53.8	53.8	53.8	94	52.1	1	4	68	0.00	29.903 
23:00	53.6	53.6	53.6	94	51.9	2	5	68	0.00	29.904 
23:05	53.8	53.8	53.8	94	52.1	2	6	45	0.00	29.904 
23:10	53.8	53.8	53.8	94	52.1	2	7	112	0.00	29.904 
23:15	53.8	53.8	53.8	94	52.1	1	5	135	0.00	29.902 
23:20	53.8	53.8	53.8	94	52.1	2	7	112	0.00	29.902 
23:25	53.8	53.8	53.8	94	52.1	1	6	112	0.00	29.902 
23:30	53.8	53.8	53.8	94	52.1	2	9	135	0.00	29.896 
23:35	53.8	53.8	53.8	94	52.1	1	3	90	0.00	29.896 
23:40	53.6	53.6	53.6	94	51.9	1	3	112	0.00	29.896 
23:45	53.6	53.6	53.6	94	51.9	1	6	158	0.00	29.891 
23:50	53.6	53.6	53.6	94	51.9	1	7	90	0.00	29.891 
23:55	53.6	53.6	53.6	94	51.9	1	4	135	0.00	29.891 

CoCoRaHS
IN-AL-39
A2 Web Hosting
Creative Commons License
GoDaddy
search engine by freefind advanced

loaded 2018-11-12 14:51:51 • last modified 2010-11-18 10:43:29
Privacy PolicyDisclaimer
• wx.awcolley.com is powered by PmWiki v.2002016 •
• all content (unless otherwise noted) © 2018 A W Colley